createdAt,value
2018-03-28T00:01:36.834Z,8.50
2018-03-28T00:04:05.147Z,8.50
2018-03-28T00:06:33.349Z,8.50
2018-03-28T00:09:01.610Z,8.60
2018-03-28T00:11:29.830Z,8.40
2018-03-28T00:13:58.057Z,8.60
2018-03-28T00:16:26.462Z,8.60
2018-03-28T00:18:54.690Z,8.40
2018-03-28T00:21:22.915Z,8.40
2018-03-28T00:23:51.451Z,8.50
2018-03-28T00:26:19.744Z,8.60
2018-03-28T00:28:48.006Z,8.40
2018-03-28T00:31:16.475Z,8.30
2018-03-28T00:33:45.477Z,8.50
2018-03-28T00:36:13.746Z,8.50
2018-03-28T00:38:42.231Z,8.50
2018-03-28T00:41:10.484Z,8.60
2018-03-28T00:43:39.461Z,8.50
2018-03-28T00:46:07.774Z,8.50
2018-03-28T00:48:35.992Z,8.50
2018-03-28T00:51:16.318Z,8.50
2018-03-28T00:53:44.536Z,8.70
2018-03-28T00:56:12.821Z,8.60
2018-03-28T00:58:41.253Z,8.80
2018-03-28T01:01:09.498Z,8.50
2018-03-28T01:03:38.470Z,8.60
2018-03-28T01:06:06.882Z,8.60
2018-03-28T01:08:35.093Z,8.80
2018-03-28T01:11:03.352Z,8.70
2018-03-28T01:13:31.929Z,8.80
2018-03-28T01:16:00.182Z,8.70
2018-03-28T01:18:29.305Z,8.70
2018-03-28T01:20:57.790Z,8.70
2018-03-28T01:23:26.011Z,8.70
2018-03-28T01:25:54.230Z,8.70
2018-03-28T01:28:22.718Z,9.10
2018-03-28T01:30:50.942Z,9.20
2018-03-28T01:33:19.173Z,9.30
2018-03-28T01:35:47.625Z,9.10
2018-03-28T01:38:15.842Z,9.20
2018-03-28T01:40:44.099Z,9.00
2018-03-28T01:43:12.635Z,9.30
2018-03-28T01:45:40.874Z,9.30
2018-03-28T01:48:09.094Z,9.20
2018-03-28T01:50:38.418Z,9.20
2018-03-28T01:53:06.631Z,9.20
2018-03-28T01:55:34.876Z,9.20
2018-03-28T01:58:03.553Z,9.00
2018-03-28T02:00:31.767Z,9.20
2018-03-28T02:03:00.157Z,9.40
2018-03-28T02:05:28.577Z,9.40
2018-03-28T02:07:56.818Z,9.20
2018-03-28T02:10:25.035Z,9.50
2018-03-28T02:12:53.517Z,9.40
2018-03-28T02:15:21.726Z,9.30
2018-03-28T02:17:49.982Z,9.10
2018-03-28T02:20:19.354Z,8.90
2018-03-28T02:22:48.341Z,9.00
2018-03-28T02:25:17.378Z,9.00
2018-03-28T02:27:45.826Z,9.00
2018-03-28T02:30:14.248Z,8.90
2018-03-28T02:32:42.464Z,9.00
2018-03-28T02:35:10.975Z,9.00
2018-03-28T02:37:39.301Z,9.00
2018-03-28T02:40:07.766Z,9.10
2018-03-28T02:42:36.431Z,9.20
2018-03-28T02:45:04.637Z,9.30
2018-03-28T02:47:32.858Z,9.20
2018-03-28T02:50:02.264Z,9.20
2018-03-28T02:52:30.591Z,9.20
2018-03-28T02:54:58.829Z,9.20
2018-03-28T02:57:27.250Z,9.20
2018-03-28T02:59:55.471Z,9.20
2018-03-28T03:02:23.671Z,9.20
2018-03-28T03:04:52.554Z,9.20
2018-03-28T03:07:20.754Z,9.20
2018-03-28T03:09:48.964Z,9.60
2018-03-28T03:12:18.272Z,9.50
2018-03-28T03:14:46.561Z,9.40
2018-03-28T03:17:14.778Z,9.70
2018-03-28T03:19:43.247Z,9.40
2018-03-28T03:22:11.442Z,9.60
2018-03-28T03:24:40.784Z,9.90
2018-03-28T03:27:09.262Z,9.90
2018-03-28T03:29:37.570Z,10.20
2018-03-28T03:32:05.817Z,10.30
2018-03-28T03:34:34.223Z,10.10
2018-03-28T03:37:02.462Z,9.60
2018-03-28T03:39:30.670Z,9.60
2018-03-28T03:41:59.234Z,9.60
2018-03-28T03:44:27.510Z,9.40
2018-03-28T03:46:55.708Z,9.50
2018-03-28T03:49:24.263Z,9.70
2018-03-28T03:51:53.233Z,9.50
2018-03-28T03:54:22.209Z,9.40
2018-03-28T03:56:50.531Z,9.40
2018-03-28T03:59:18.811Z,9.40
2018-03-28T04:01:47.075Z,9.50
2018-03-28T04:04:16.271Z,9.40
2018-03-28T04:06:45.603Z,9.40
2018-03-28T04:09:13.830Z,9.40
2018-03-28T04:11:43.053Z,9.50
2018-03-28T04:14:11.266Z,9.50
2018-03-28T04:16:39.471Z,9.50
2018-03-28T04:19:07.895Z,9.50
2018-03-28T04:21:36.095Z,9.50
2018-03-28T04:24:04.332Z,9.50
2018-03-28T04:26:32.719Z,9.60
2018-03-28T04:29:00.921Z,9.60
2018-03-28T04:31:29.155Z,9.60
2018-03-28T04:33:57.432Z,9.60
2018-03-28T04:36:25.645Z,9.60
2018-03-28T04:38:53.868Z,9.60
2018-03-28T04:41:23.118Z,9.90
2018-03-28T04:43:51.318Z,9.90
2018-03-28T04:46:19.525Z,9.80
2018-03-28T04:48:48.023Z,9.70
2018-03-28T04:51:16.260Z,9.80
2018-03-28T04:53:45.288Z,9.90
2018-03-28T04:56:13.905Z,9.90
2018-03-28T04:58:42.289Z,10.00
2018-03-28T05:01:10.759Z,10.10
2018-03-28T05:03:39.297Z,10.10
2018-03-28T05:06:07.570Z,10.20
2018-03-28T05:08:35.850Z,10.20
2018-03-28T05:11:04.330Z,10.20
2018-03-28T05:13:32.607Z,10.20
2018-03-28T05:16:00.810Z,10.20
2018-03-28T05:18:29.376Z,10.20
2018-03-28T05:20:58.460Z,10.20
2018-03-28T05:23:27.511Z,10.30
2018-03-28T05:25:55.969Z,10.20
2018-03-28T05:28:24.175Z,10.20
2018-03-28T05:30:52.492Z,10.10
2018-03-28T05:33:22.194Z,10.10
2018-03-28T05:35:50.446Z,10.10
2018-03-28T05:38:18.670Z,10.10
2018-03-28T05:40:46.898Z,10.10
2018-03-28T05:43:15.907Z,10.10
2018-03-28T05:45:44.963Z,10.10
2018-03-28T05:48:13.466Z,10.10
2018-03-28T05:50:41.815Z,10.10
2018-03-28T05:53:10.031Z,10.10
2018-03-28T05:55:39.250Z,10.10
2018-03-28T05:58:07.498Z,10.10
2018-03-28T06:00:36.496Z,10.20
2018-03-28T06:03:06.173Z,10.20
2018-03-28T06:05:34.374Z,10.20
2018-03-28T06:08:03.020Z,10.20
2018-03-28T06:10:31.472Z,10.20
2018-03-28T06:12:59.786Z,10.20
2018-03-28T06:15:27.978Z,10.20
2018-03-28T06:17:56.486Z,10.10
2018-03-28T06:20:24.735Z,10.20
2018-03-28T06:22:53.625Z,10.20
2018-03-28T06:25:21.853Z,10.20
2018-03-28T06:27:50.065Z,10.20
2018-03-28T06:30:18.263Z,10.20
2018-03-28T06:32:47.470Z,10.30
2018-03-28T06:35:16.441Z,10.20
2018-03-28T06:37:44.667Z,10.20
2018-03-28T06:40:14.162Z,10.10
2018-03-28T06:42:42.346Z,10.10
2018-03-28T06:45:10.560Z,10.20
2018-03-28T06:47:39.007Z,10.20
2018-03-28T06:50:07.400Z,10.10
2018-03-28T06:52:35.624Z,10.40
2018-03-28T06:55:04.822Z,10.40
2018-03-28T06:57:33.043Z,10.40
2018-03-28T07:10:03.143Z,10.50
2018-03-28T07:12:32.210Z,10.40
2018-03-28T07:15:01.556Z,10.50
2018-03-28T07:17:29.778Z,10.50
2018-03-28T07:19:59.151Z,10.90
2018-03-28T07:22:28.170Z,10.70
2018-03-28T07:24:56.619Z,10.70
2018-03-28T07:27:25.589Z,10.90
2018-03-28T07:29:54.945Z,10.70
2018-03-28T07:32:23.424Z,10.70
2018-03-28T07:34:51.630Z,10.80
2018-03-28T07:37:19.836Z,10.80
2018-03-28T07:39:49.043Z,10.90
2018-03-28T07:42:18.093Z,11.00
2018-03-28T07:44:46.319Z,11.00
2018-03-28T07:47:15.618Z,10.90
2018-03-28T07:49:44.610Z,10.80
2018-03-28T07:52:12.817Z,10.80
2018-03-28T07:54:41.362Z,10.60
2018-03-28T07:57:10.372Z,11.10
2018-03-28T07:59:38.629Z,11.10
2018-03-28T08:02:07.831Z,11.20
2018-03-28T08:04:36.042Z,11.20
2018-03-28T08:07:08.373Z,10.80
2018-03-28T08:09:37.980Z,10.90
2018-03-28T08:12:06.379Z,10.80
2018-03-28T08:14:34.588Z,10.80
2018-03-28T08:17:03.126Z,10.90
2018-03-28T08:19:31.329Z,11.00
2018-03-28T08:21:59.542Z,10.90
2018-03-28T08:24:28.046Z,11.00
2018-03-28T08:26:57.026Z,10.90
2018-03-28T08:29:26.023Z,10.90
2018-03-28T08:31:55.430Z,11.00
2018-03-28T08:34:23.612Z,11.00
2018-03-28T08:36:52.581Z,10.90
2018-03-28T08:39:21.053Z,10.90
2018-03-28T08:41:49.258Z,10.80
2018-03-28T08:44:17.487Z,10.80
2018-03-28T08:46:47.050Z,10.70
2018-03-28T08:49:15.314Z,10.70
2018-03-28T08:51:43.550Z,10.80
2018-03-28T08:54:12.072Z,10.90
2018-03-28T08:56:40.291Z,10.80
2018-03-28T08:59:08.512Z,10.90
2018-03-28T09:01:37.722Z,10.60
2018-03-28T09:04:06.006Z,10.60
2018-03-28T09:06:34.274Z,10.80
2018-03-28T09:09:02.814Z,10.70
2018-03-28T09:11:31.056Z,10.60
2018-03-28T09:13:59.314Z,10.70
2018-03-28T09:16:27.884Z,10.90
2018-03-28T09:18:56.878Z,10.80
2018-03-28T09:21:26.237Z,10.70
2018-03-28T09:23:54.558Z,10.60
2018-03-28T09:26:22.791Z,10.80
2018-03-28T09:28:52.522Z,10.70
2018-03-28T09:31:22.059Z,10.70
2018-03-28T09:33:50.290Z,10.70
2018-03-28T09:36:18.528Z,10.70
2018-03-28T09:38:47.907Z,10.80
2018-03-28T09:41:16.123Z,10.80
2018-03-28T09:43:44.454Z,10.90
2018-03-28T09:46:14.181Z,11.10
2018-03-28T09:48:42.410Z,11.10
2018-03-28T09:51:10.673Z,11.10
2018-03-28T09:53:39.094Z,11.10
2018-03-28T09:56:07.427Z,11.30
2018-03-28T09:58:35.586Z,11.60
2018-03-28T10:01:09.047Z,11.60
2018-03-28T10:03:43.011Z,11.80
2018-03-28T10:06:12.363Z,11.90
2018-03-28T10:08:41.736Z,12.00
2018-03-28T10:11:11.162Z,12.10
2018-03-28T10:13:40.150Z,12.10
2018-03-28T10:16:08.362Z,12.20
2018-03-28T10:18:37.722Z,12.10
2018-03-28T10:21:06.202Z,12.20
2018-03-28T10:28:34.318Z,13.80
2018-03-28T10:31:02.532Z,13.40
2018-03-28T10:33:30.741Z,12.70
2018-03-28T10:38:28.956Z,13.20
2018-03-28T10:40:57.235Z,13.00
2018-03-28T10:45:56.210Z,12.60
2018-03-28T10:48:24.510Z,12.60
2018-03-28T10:50:52.978Z,12.70
2018-03-28T10:53:22.000Z,12.60
2018-03-28T10:55:50.212Z,12.60
2018-03-28T10:58:18.644Z,12.70
2018-03-28T11:00:47.750Z,13.00
2018-03-28T11:03:15.984Z,13.00
2018-03-28T11:08:15.007Z,13.00
2018-03-28T11:10:43.984Z,13.00
2018-03-28T11:13:12.486Z,13.00
2018-03-28T11:15:41.868Z,13.30
2018-03-28T11:18:10.180Z,13.30
2018-03-28T11:20:38.669Z,13.30
2018-03-28T11:23:07.079Z,13.50
2018-03-28T11:25:35.284Z,13.50
2018-03-28T11:28:04.913Z,13.60
2018-03-28T11:30:33.895Z,13.40
2018-03-28T11:33:02.895Z,13.90
2018-03-28T11:35:32.313Z,14.00
2018-03-28T11:38:00.626Z,13.90
2018-03-28T11:40:28.853Z,13.90
2018-03-28T11:42:58.147Z,13.40
2018-03-28T11:45:27.134Z,13.60
2018-03-28T11:47:56.509Z,13.60
2018-03-28T11:50:26.217Z,13.70
2018-03-28T11:52:54.465Z,13.70
2018-03-28T11:55:23.434Z,13.90
2018-03-28T11:57:51.667Z,13.90
2018-03-28T12:00:21.801Z,13.60
2018-03-28T12:02:50.821Z,13.70
2018-03-28T12:05:19.071Z,13.70
2018-03-28T12:07:47.282Z,13.50
2018-03-28T12:10:15.530Z,13.50
2018-03-28T12:12:44.522Z,13.20
2018-03-28T12:15:13.510Z,13.10
2018-03-28T12:17:43.090Z,13.20
2018-03-28T12:20:12.016Z,13.20
2018-03-28T12:22:40.228Z,13.30
2018-03-28T12:25:10.113Z,12.80
2018-03-28T12:27:38.581Z,12.80
2018-03-28T12:30:07.854Z,12.90
2018-03-28T12:32:37.127Z,12.90
2018-03-28T12:35:07.278Z,13.00
2018-03-28T12:40:12.756Z,12.70
2018-03-28T12:42:40.955Z,12.60
2018-03-28T12:45:09.190Z,12.60
2018-03-28T12:47:37.595Z,12.40
2018-03-28T12:50:06.758Z,12.40
2018-03-28T12:52:35.086Z,12.30
2018-03-28T12:55:03.331Z,12.30
2018-03-28T12:57:32.342Z,12.10
2018-03-28T13:00:00.610Z,12.10
2018-03-28T13:05:00.031Z,11.80
2018-03-28T13:07:29.017Z,11.70
2018-03-28T13:09:58.092Z,11.80
2018-03-28T13:12:26.318Z,11.80
2018-03-28T13:14:54.573Z,11.70
2018-03-28T13:17:23.037Z,11.90
2018-03-28T13:19:52.154Z,12.30
2018-03-28T13:22:20.550Z,12.40
2018-03-28T13:24:49.017Z,12.30
2018-03-28T13:27:17.282Z,12.10
2018-03-28T13:29:45.561Z,12.20
2018-03-28T13:32:14.050Z,12.10
2018-03-28T13:34:42.254Z,12.10
2018-03-28T13:37:10.461Z,12.10
2018-03-28T13:39:40.428Z,11.80
2018-03-28T13:42:09.421Z,11.80
2018-03-28T13:44:37.654Z,11.80
2018-03-28T13:47:06.986Z,12.20
2018-03-28T13:49:35.250Z,12.20
2018-03-28T13:52:03.465Z,12.20
2018-03-28T13:54:31.901Z,11.90
2018-03-28T13:57:00.207Z,11.60
2018-03-28T13:59:28.461Z,11.70
2018-03-28T14:01:57.052Z,11.70
2018-03-28T14:04:25.268Z,11.90
2018-03-28T14:06:53.469Z,12.10
2018-03-28T14:09:22.770Z,11.90
2018-03-28T14:11:51.738Z,12.20
2018-03-28T14:14:19.946Z,12.20
2018-03-28T14:16:49.276Z,12.20
2018-03-28T14:19:18.281Z,12.20
2018-03-28T14:21:46.612Z,12.10
2018-03-28T14:24:15.098Z,12.10
2018-03-28T14:26:44.079Z,12.10
2018-03-28T14:29:13.060Z,11.70
2018-03-28T14:31:41.362Z,11.70
2018-03-28T14:34:15.042Z,11.80
2018-03-28T14:36:50.321Z,12.10
2018-03-28T14:39:23.978Z,12.10
2018-03-28T14:41:58.049Z,12.10
2018-03-28T14:44:31.784Z,12.10
2018-03-28T14:47:06.573Z,12.00
2018-03-28T14:49:40.167Z,12.00
2018-03-28T14:52:13.986Z,11.70
2018-03-28T14:54:47.662Z,11.70
2018-03-28T14:57:22.282Z,12.00
2018-03-28T14:59:56.065Z,12.00
2018-03-28T15:02:29.997Z,11.90
2018-03-28T15:05:04.402Z,12.00
2018-03-28T15:07:38.382Z,12.00
2018-03-28T15:10:12.092Z,12.10
2018-03-28T15:12:46.039Z,12.00
2018-03-28T15:15:20.630Z,12.30
2018-03-28T15:17:54.581Z,12.30
2018-03-28T15:20:29.162Z,12.10
2018-03-28T15:23:04.360Z,12.10
2018-03-28T15:25:38.940Z,12.30
2018-03-28T15:28:12.926Z,12.30
2018-03-28T15:30:46.671Z,12.10
2018-03-28T15:33:21.294Z,11.90
2018-03-28T15:35:55.827Z,11.60
2018-03-28T15:38:29.740Z,11.60
2018-03-28T15:41:03.280Z,11.70
2018-03-28T15:43:37.942Z,11.50
2018-03-28T15:46:11.554Z,11.50
2018-03-28T15:48:45.459Z,11.30
2018-03-28T15:51:19.278Z,11.60
2018-03-28T15:53:53.186Z,11.40
2018-03-28T15:56:26.900Z,11.40
2018-03-28T15:59:00.592Z,11.40
2018-03-28T16:01:34.182Z,11.70
2018-03-28T16:04:09.010Z,11.80
2018-03-28T16:06:43.523Z,11.80
2018-03-28T16:09:17.543Z,11.80
2018-03-28T16:11:51.186Z,11.70
2018-03-28T16:14:25.070Z,11.70
2018-03-28T16:16:58.681Z,11.60
2018-03-28T16:19:32.843Z,11.60
2018-03-28T16:22:06.589Z,11.70
2018-03-28T16:24:44.794Z,11.60
2018-03-28T16:27:18.506Z,11.80
2018-03-28T16:29:52.429Z,11.70
2018-03-28T16:32:26.822Z,11.80
2018-03-28T16:35:00.727Z,11.80
2018-03-28T16:37:34.432Z,11.80
2018-03-28T16:40:08.658Z,11.80
2018-03-28T16:42:43.132Z,11.80
2018-03-28T16:45:17.104Z,11.80
2018-03-28T16:47:50.755Z,11.70
2018-03-28T16:50:24.789Z,11.60
2018-03-28T16:52:58.383Z,11.60
2018-03-28T16:55:32.006Z,11.80
2018-03-28T16:58:05.653Z,11.80
2018-03-28T17:00:40.322Z,11.90
2018-03-28T17:03:14.156Z,11.90
2018-03-28T17:05:48.035Z,11.90
2018-03-28T17:08:21.952Z,11.90
2018-03-28T17:10:56.550Z,12.00
2018-03-28T17:13:31.199Z,11.90
2018-03-28T17:16:05.258Z,11.90
2018-03-28T17:18:39.026Z,11.90
2018-03-28T17:21:12.810Z,12.00
2018-03-28T17:23:46.497Z,12.10
2018-03-28T17:26:21.437Z,11.90
2018-03-28T17:28:55.011Z,11.90
2018-03-28T17:31:29.054Z,11.90
2018-03-28T17:34:02.726Z,12.10
2018-03-28T17:36:36.762Z,12.20
2018-03-28T17:39:10.459Z,12.20
2018-03-28T17:41:44.528Z,12.10
2018-03-28T17:44:19.022Z,12.10
2018-03-28T17:46:52.722Z,12.00
2018-03-28T17:49:26.718Z,12.00
2018-03-28T17:52:00.634Z,12.20
2018-03-28T17:54:35.024Z,12.20
2018-03-28T17:57:08.953Z,12.20
2018-03-28T17:59:42.563Z,12.10
2018-03-28T18:02:16.567Z,12.20
2018-03-28T18:04:50.170Z,12.30
2018-03-28T18:07:24.894Z,12.10
2018-03-28T18:09:59.524Z,12.20
2018-03-28T18:12:33.638Z,12.20
2018-03-28T18:15:07.542Z,12.30
2018-03-28T18:17:41.502Z,12.10
2018-03-28T18:20:15.948Z,11.90
2018-03-28T18:22:50.492Z,11.80
2018-03-28T18:25:24.101Z,11.70
2018-03-28T18:27:58.617Z,11.80
2018-03-28T18:30:32.524Z,11.80
2018-03-28T18:33:06.638Z,11.70
2018-03-28T18:35:40.434Z,11.80
2018-03-28T18:38:14.455Z,11.70
2018-03-28T18:40:48.118Z,11.60
2018-03-28T18:43:22.270Z,11.50
2018-03-28T18:45:55.834Z,11.70
2018-03-28T18:48:29.635Z,11.60
2018-03-28T18:51:03.448Z,11.50
2018-03-28T18:53:37.402Z,11.50
2018-03-28T18:56:11.293Z,11.50
2018-03-28T18:58:45.239Z,11.60
2018-03-28T19:03:54.921Z,11.70
2018-03-28T19:06:28.667Z,11.70
2018-03-28T19:09:02.654Z,11.70
2018-03-28T19:11:37.375Z,11.60
2018-03-28T20:11:13.641Z,11.80
2018-03-28T20:13:47.308Z,11.70
2018-03-28T20:16:20.983Z,11.80
2018-03-28T20:18:54.750Z,11.80
2018-03-28T20:21:29.894Z,11.70
2018-03-28T20:24:03.610Z,11.70
2018-03-28T20:26:37.606Z,11.60
2018-03-28T20:29:11.177Z,11.60
2018-03-28T20:31:45.848Z,11.60
2018-03-28T20:34:19.558Z,11.50
2018-03-28T20:36:53.262Z,11.50
2018-03-28T20:39:27.002Z,11.40
2018-03-28T20:42:00.963Z,11.40
2018-03-28T20:44:35.738Z,11.30
2018-03-28T20:47:09.607Z,11.30
2018-03-28T20:49:43.456Z,11.20
2018-03-28T20:52:17.614Z,11.20
2018-03-28T20:54:51.418Z,11.10
2018-03-28T20:57:25.374Z,11.10
2018-03-28T20:59:59.918Z,10.80
2018-03-28T21:02:33.919Z,10.80
2018-03-28T21:05:07.708Z,10.90
2018-03-28T21:07:44.329Z,10.80
2018-03-28T21:10:19.135Z,10.80
2018-03-28T21:12:53.979Z,10.70
2018-03-28T21:15:27.605Z,10.60
2018-03-28T21:18:01.314Z,10.70
2018-03-28T21:20:35.005Z,10.60
2018-03-28T21:23:09.210Z,10.50
2018-03-28T21:25:42.842Z,10.50
2018-03-28T21:28:16.808Z,10.50
2018-03-28T21:30:50.539Z,10.50
2018-03-28T21:33:25.566Z,10.50
2018-03-28T21:35:59.236Z,10.40
2018-03-28T21:38:33.176Z,10.50
2018-03-28T21:41:06.932Z,10.50
2018-03-28T21:43:40.847Z,10.30
2018-03-28T21:46:14.591Z,10.40
2018-03-28T21:48:48.469Z,10.40
2018-03-28T21:51:22.188Z,10.50
2018-03-28T21:53:56.213Z,10.30
2018-03-28T21:56:30.634Z,10.10
2018-03-28T21:59:04.542Z,10.10
2018-03-28T22:01:38.368Z,10.30
2018-03-28T22:04:12.262Z,10.40
2018-03-28T22:06:45.817Z,10.30
2018-03-28T22:09:19.670Z,10.20
2018-03-28T22:11:53.368Z,10.20
2018-03-28T22:14:27.375Z,10.20
2018-03-28T22:17:00.959Z,10.00
2018-03-28T22:19:34.884Z,10.20
2018-03-28T22:22:08.588Z,10.20
2018-03-28T22:24:42.594Z,10.10
2018-03-28T22:27:16.682Z,10.10
2018-03-28T22:29:50.221Z,10.00
2018-03-28T22:32:23.881Z,10.10
2018-03-28T22:34:57.487Z,10.10
2018-03-28T22:37:31.432Z,9.90
2018-03-28T22:40:05.864Z,9.90
2018-03-28T22:42:39.645Z,10.10
2018-03-28T22:45:13.466Z,10.10
2018-03-28T22:47:47.248Z,10.10
2018-03-28T22:50:20.963Z,10.00
2018-03-28T22:52:54.785Z,9.90
2018-03-28T22:55:29.503Z,9.80
2018-03-28T22:58:03.164Z,9.80
2018-03-28T23:00:37.101Z,9.80
2018-03-28T23:03:12.097Z,9.70
2018-03-28T23:05:46.242Z,9.70
2018-03-28T23:08:20.068Z,9.60
2018-03-28T23:10:53.942Z,9.60
2018-03-28T23:13:27.574Z,9.70
2018-03-28T23:16:01.266Z,9.40
2018-03-28T23:18:34.970Z,9.50
2018-03-28T23:21:08.668Z,9.40
2018-03-28T23:23:42.323Z,9.30
2018-03-28T23:26:16.075Z,9.30
2018-03-28T23:28:49.879Z,9.30
2018-03-28T23:31:23.693Z,9.40
2018-03-28T23:33:57.280Z,9.10
2018-03-28T23:36:31.001Z,9.10
2018-03-28T23:39:04.559Z,9.30
2018-03-28T23:41:38.339Z,9.50
2018-03-28T23:44:12.154Z,9.50
2018-03-28T23:46:46.051Z,9.30
2018-03-28T23:49:19.755Z,9.50
2018-03-28T23:51:54.071Z,9.70
2018-03-28T23:54:27.846Z,9.60
2018-03-28T23:57:01.769Z,9.50
2018-03-28T23:59:35.565Z,9.50
